createdAt,value
2018-07-07T00:00:55.035Z,43.08
2018-07-07T00:01:55.028Z,42.6
2018-07-07T00:02:54.763Z,42.32
2018-07-07T00:03:55.011Z,43.37
2018-07-07T00:04:55.007Z,43.68
2018-07-07T00:05:54.740Z,45.18
2018-07-07T00:06:54.990Z,45.29
2018-07-07T00:07:54.726Z,46.61
2018-07-07T00:08:54.975Z,46.32
2018-07-07T00:09:54.710Z,46.99
2018-07-07T00:10:54.958Z,46.89
2018-07-07T00:11:54.696Z,46.7
2018-07-07T00:12:54.947Z,47.85
2018-07-07T00:13:54.947Z,47.28
2018-07-07T00:14:54.674Z,48.04
2018-07-07T00:15:54.923Z,48.9
2018-07-07T00:16:54.920Z,49.47
2018-07-07T00:17:54.911Z,50.42
2018-07-07T00:18:54.900Z,51.56
2018-07-07T00:19:54.637Z,50.99
2018-07-07T00:20:54.890Z,51.47
2018-07-07T00:21:54.878Z,49.66
2018-07-07T00:22:54.874Z,50.52
2018-07-07T00:23:54.868Z,50.8
2018-07-07T00:24:54.858Z,50.04
2018-07-07T00:25:54.854Z,49.76
2018-07-07T00:26:54.845Z,49.56
2018-07-07T00:27:54.576Z,49.66
2018-07-07T00:28:54.825Z,52.33
2018-07-07T00:29:54.819Z,53.09
2018-07-07T00:30:54.810Z,53.85
2018-07-07T00:31:54.802Z,54.52
2018-07-07T00:32:54.795Z,54.9
2018-07-07T00:33:54.790Z,56.33
2018-07-07T00:34:54.779Z,56.97
2018-07-07T00:35:54.776Z,57.26
2018-07-07T00:36:54.770Z,58.4
2018-07-07T00:37:54.758Z,59.35
2018-07-07T00:38:54.749Z,58.97
2018-07-07T00:39:54.742Z,57.35
2018-07-07T00:40:54.784Z,56.97
2018-07-07T00:41:54.727Z,56.21
2018-07-07T00:42:54.719Z,56.78
2018-07-07T00:43:54.711Z,57.45
2018-07-07T00:44:54.447Z,58.5
2018-07-07T00:45:54.695Z,59.83
2018-07-07T00:46:54.432Z,60.59
2018-07-07T00:47:54.423Z,62.3
2018-07-07T00:48:54.673Z,63.35
2018-07-07T00:49:54.665Z,64.02
2018-07-07T00:50:54.656Z,66.11
2018-07-07T00:51:54.647Z,67.26
2018-07-07T00:52:54.387Z,70.02
2018-07-07T00:53:54.630Z,71.36
2018-07-07T00:54:54.625Z,70.88
2018-07-07T00:55:54.619Z,70.02
2018-07-07T00:56:54.610Z,70.5
2018-07-07T00:57:54.343Z,69.74
2018-07-07T00:58:54.336Z,68.69
2018-07-07T00:59:54.583Z,68.21
2018-07-07T01:00:54.319Z,68.37
2018-07-07T01:01:54.568Z,67.41
2018-07-07T01:02:54.561Z,66.66
2018-07-07T01:03:54.297Z,65.99
2018-07-07T01:04:54.543Z,66.75
2018-07-07T01:05:54.536Z,66.75
2018-07-07T01:06:54.529Z,67.89
2018-07-07T01:07:54.525Z,67.32
2018-07-07T01:08:54.512Z,65.8
2018-07-07T01:09:54.250Z,64.65
2018-07-07T01:10:54.499Z,63.23
2018-07-07T01:11:54.494Z,64.18
2018-07-07T01:12:54.487Z,61.42
2018-07-07T01:13:54.475Z,61.9
2018-07-07T01:14:54.213Z,61.32
2018-07-07T01:15:54.459Z,62.85
2018-07-07T01:16:54.458Z,63.04
2018-07-07T01:17:54.444Z,63.13
2018-07-07T01:18:54.440Z,63.23
2018-07-07T01:19:54.429Z,62.37
2018-07-07T01:20:54.419Z,64.08
2018-07-07T01:21:54.152Z,62.72
2018-07-07T01:22:54.399Z,62.18
2018-07-07T01:23:54.388Z,61.48
2018-07-07T01:24:54.380Z,61.04
2018-07-07T01:25:54.119Z,59.96
2018-07-07T01:26:54.361Z,60.27
2018-07-07T01:27:54.356Z,61.8
2018-07-07T01:28:54.088Z,62.05
2018-07-07T01:29:54.336Z,62.43
2018-07-07T01:30:54.332Z,62.81
2018-07-07T01:31:54.319Z,59.96
2018-07-07T01:32:54.313Z,56.82
2018-07-07T01:33:54.300Z,57.39
2018-07-07T01:34:54.292Z,58.44
2018-07-07T01:35:54.285Z,59.1
2018-07-07T01:36:54.289Z,58.15
2018-07-07T01:37:54.010Z,56.72
2018-07-07T01:38:54.259Z,59.01
2018-07-07T01:39:54.248Z,60.34
2018-07-07T01:40:54.239Z,61.29
2018-07-07T01:41:54.234Z,62.72
2018-07-07T01:42:54.222Z,63.2
2018-07-07T01:43:54.217Z,63.86
2018-07-07T01:44:54.205Z,63.48
2018-07-07T01:45:54.194Z,63.96
2018-07-07T01:46:54.186Z,60.82
2018-07-07T01:47:53.921Z,60.72
2018-07-07T01:48:54.170Z,59.86
2018-07-07T01:49:53.904Z,60.63
2018-07-07T01:50:53.897Z,60.24
2018-07-07T01:51:54.141Z,60.15
2018-07-07T01:52:53.878Z,62.43
2018-07-07T01:53:54.126Z,60.05
2018-07-07T01:54:54.117Z,59.1
2018-07-07T01:55:54.107Z,57.67
2018-07-07T01:56:54.098Z,58.06
2018-07-07T01:57:54.090Z,59.2
2018-07-07T01:58:54.080Z,58.91
2018-07-07T01:59:54.071Z,58.15
2018-07-07T02:00:54.061Z,56.15
2018-07-07T02:01:54.052Z,56.05
2018-07-07T02:02:54.046Z,55.58
2018-07-07T02:03:54.035Z,55.2
2018-07-07T02:04:54.026Z,55.1
2018-07-07T02:05:53.763Z,55.01
2018-07-07T02:06:54.010Z,53.75
2018-07-07T02:07:53.742Z,52.92
2018-07-07T02:08:53.994Z,51.58
2018-07-07T02:09:53.978Z,51.01
2018-07-07T02:10:53.713Z,50.89
2018-07-07T02:11:53.960Z,49.87
2018-07-07T02:12:53.952Z,49.27
2018-07-07T02:13:53.943Z,48.71
2018-07-07T02:14:53.932Z,48.9
2018-07-07T02:15:53.922Z,47.37
2018-07-07T02:16:53.914Z,47.75
2018-07-07T02:17:53.904Z,47.85
2018-07-07T02:18:54.076Z,47.94
2018-07-07T02:19:53.890Z,48.51
2018-07-07T02:20:53.879Z,48.13
2018-07-07T02:21:53.866Z,47.94
2018-07-07T02:22:53.860Z,47.94
2018-07-07T02:23:53.848Z,47.85
2018-07-07T02:24:53.585Z,47.28
2018-07-07T02:25:53.832Z,46.99
2018-07-07T02:26:53.821Z,47.85
2018-07-07T02:27:53.811Z,47.56
2018-07-07T02:28:53.802Z,48.13
2018-07-07T02:29:53.792Z,47.47
2018-07-07T02:30:53.788Z,48.13
2018-07-07T02:31:53.775Z,47.94
2018-07-07T02:32:53.764Z,48.32
2018-07-07T02:33:53.504Z,47.94
2018-07-07T02:34:53.752Z,48.23
2018-07-07T02:35:53.738Z,48.13
2018-07-07T02:36:53.727Z,48.23
2018-07-07T02:37:53.462Z,48.99
2018-07-07T02:38:53.709Z,48.03
2018-07-07T02:39:53.720Z,46.89
2018-07-07T02:40:53.690Z,47.94
2018-07-07T02:41:53.683Z,49.37
2018-07-07T02:42:53.679Z,52.8
2018-07-07T02:43:53.666Z,56.7
2018-07-07T02:44:53.652Z,57.36
2018-07-07T02:45:53.650Z,57.14
2018-07-07T02:46:53.638Z,55.71
2018-07-07T02:47:53.628Z,54.67
2018-07-07T02:48:53.620Z,52.29
2018-07-07T02:49:53.605Z,49.63
2018-07-07T02:50:53.595Z,47.92
2018-07-07T02:51:53.584Z,46.4
2018-07-07T02:52:53.595Z,45.83
2018-07-07T02:53:53.565Z,44.78
2018-07-07T02:54:53.557Z,42.97
2018-07-07T02:55:53.546Z,42.02
2018-07-07T02:56:53.552Z,43.07
2018-07-07T02:57:53.526Z,45.73
2018-07-07T02:58:53.521Z,44.02
2018-07-07T02:59:53.511Z,41.64
2018-07-07T03:00:53.498Z,40.41
2018-07-07T03:01:53.488Z,39.45
2018-07-07T03:02:53.223Z,39.36
2018-07-07T03:03:53.472Z,38.7
2018-07-07T03:04:53.201Z,37.93
2018-07-07T03:05:53.454Z,37.74
2018-07-07T03:06:53.437Z,38.03
2018-07-07T03:07:53.430Z,38.22
2018-07-07T03:08:53.418Z,38.51
2018-07-07T03:09:53.412Z,38.31
2018-07-07T03:10:53.398Z,38.03
2018-07-07T03:11:53.406Z,37.55
2018-07-07T03:12:53.379Z,37.46
2018-07-07T03:13:53.369Z,37.84
2018-07-07T03:14:53.358Z,39.17
2018-07-07T03:15:53.347Z,40.69
2018-07-07T03:16:53.340Z,42.31
2018-07-07T03:17:53.333Z,42.21
2018-07-07T03:18:53.321Z,42.12
2018-07-07T03:19:53.050Z,41.74
2018-07-07T03:20:53.299Z,41.55
2018-07-07T03:21:53.036Z,40.88
2018-07-07T03:22:53.278Z,40.41
2018-07-07T03:23:53.269Z,39.93
2018-07-07T03:24:53.259Z,39.93
2018-07-07T03:25:53.255Z,40.59
2018-07-07T03:26:53.243Z,41.83
2018-07-07T03:27:53.230Z,41.36
2018-07-07T03:28:53.218Z,40.59
2018-07-07T03:29:53.211Z,40.22
2018-07-07T03:30:53.202Z,40.31
2018-07-07T03:31:53.190Z,40.5
2018-07-07T03:32:53.178Z,41.46
2018-07-07T03:33:53.168Z,42.21
2018-07-07T03:34:52.901Z,42.31
2018-07-07T03:35:53.153Z,41.55
2018-07-07T03:36:53.137Z,40.41
2018-07-07T03:37:53.127Z,39.55
2018-07-07T03:38:53.120Z,39.45
2018-07-07T03:39:53.112Z,40.22
2018-07-07T03:40:53.106Z,40.41
2018-07-07T03:41:53.088Z,41.64
2018-07-07T03:42:53.084Z,41.93
2018-07-07T03:43:53.069Z,40.98
2018-07-07T03:44:53.057Z,39.84
2018-07-07T03:45:52.794Z,40.31
2018-07-07T03:46:53.038Z,40.41
2018-07-07T03:47:53.030Z,39.93
2018-07-07T03:48:53.019Z,39.93
2018-07-07T03:49:53.008Z,39.74
2018-07-07T03:50:52.997Z,41.55
2018-07-07T03:51:52.987Z,42.97
2018-07-07T03:52:52.978Z,43.54
2018-07-07T03:53:52.710Z,44.21
2018-07-07T03:54:52.699Z,44.97
2018-07-07T03:55:52.945Z,46.4
2018-07-07T03:56:52.942Z,46.68
2018-07-07T03:57:52.925Z,46.78
2018-07-07T03:58:53.010Z,47.25
2018-07-07T03:59:52.906Z,46.59
2018-07-07T04:00:52.644Z,46.59
2018-07-07T04:01:52.887Z,45.07
2018-07-07T04:02:52.873Z,45.54
2018-07-07T04:03:52.864Z,45.64
2018-07-07T04:04:52.851Z,44.87
2018-07-07T04:05:52.848Z,44.59
2018-07-07T04:06:52.840Z,44.02
2018-07-07T04:07:52.566Z,43.64
2018-07-07T04:08:52.819Z,42.88
2018-07-07T04:09:52.549Z,43.26
2018-07-07T04:10:52.537Z,44.21
2018-07-07T04:11:52.782Z,43.93
2018-07-07T04:12:52.771Z,44.21
2018-07-07T04:13:52.762Z,43.26
2018-07-07T04:14:52.750Z,42.97
2018-07-07T04:15:52.750Z,43.07
2018-07-07T04:16:52.731Z,42.88
2018-07-07T04:17:52.720Z,42.97
2018-07-07T04:18:52.713Z,42.97
2018-07-07T04:19:52.443Z,42.79
2018-07-07T04:20:52.434Z,43.07
2018-07-07T04:21:52.681Z,43.07
2018-07-07T04:22:52.670Z,42.88
2018-07-07T04:23:52.664Z,42.21
2018-07-07T04:24:52.394Z,41.83
2018-07-07T04:25:52.647Z,40.41
2018-07-07T04:26:52.630Z,39.74
2018-07-07T04:27:52.618Z,39.55
2018-07-07T04:28:52.608Z,39.65
2018-07-07T04:29:52.601Z,40.03
2018-07-07T04:30:52.597Z,40.33
2018-07-07T04:31:52.324Z,40.14
2018-07-07T04:32:52.312Z,40.14
2018-07-07T04:33:52.561Z,40.23
2018-07-07T04:34:52.550Z,40.14
2018-07-07T04:35:52.542Z,39.57
2018-07-07T04:36:52.530Z,39.57
2018-07-07T04:37:52.267Z,40.52
2018-07-07T04:38:52.510Z,40.52
2018-07-07T04:39:52.506Z,40.81
2018-07-07T04:40:52.234Z,41.76
2018-07-07T04:41:52.482Z,42.8
2018-07-07T04:42:52.473Z,44.9
2018-07-07T04:43:52.463Z,45.66
2018-07-07T04:44:52.453Z,46.23
2018-07-07T04:45:52.514Z,47.09
2018-07-07T04:46:52.435Z,46.83
2018-07-07T04:47:52.423Z,48.82
2018-07-07T04:48:52.420Z,49.01
2018-07-07T04:49:52.151Z,47.97
2018-07-07T04:50:52.396Z,48.63
2018-07-07T04:51:52.386Z,49.96
2018-07-07T04:52:52.377Z,50.73
2018-07-07T04:53:52.374Z,51.2
2018-07-07T04:54:52.357Z,53.77
2018-07-07T04:55:52.348Z,53.39
2018-07-07T04:56:52.340Z,55.87
2018-07-07T04:57:52.329Z,59.96
2018-07-07T04:58:52.321Z,63.1
2018-07-07T04:59:52.314Z,63.1
2018-07-07T05:00:52.302Z,62.24
2018-07-07T05:01:52.291Z,61.8
2018-07-07T05:02:52.288Z,63.13
2018-07-07T05:03:52.274Z,65.23
2018-07-07T05:04:52.011Z,68.84
2018-07-07T05:05:52.257Z,72.08
2018-07-07T05:06:52.247Z,76.18
2018-07-07T05:07:52.241Z,78.75
2018-07-07T05:08:52.233Z,76.27
2018-07-07T05:09:52.225Z,79.6
2018-07-07T05:10:52.209Z,83.61
2018-07-07T05:11:52.204Z,87.89
2018-07-07T05:12:52.192Z,93.51
2018-07-07T05:13:52.183Z,88.7
2018-07-07T05:14:52.178Z,91.13
2018-07-07T05:15:52.166Z,90.7
2018-07-07T05:16:52.156Z,93.65
2018-07-07T05:17:52.149Z,93.46
2018-07-07T05:18:52.137Z,93.55
2018-07-07T05:19:51.872Z,97.46
2018-07-07T05:20:52.124Z,97.75
2018-07-07T05:21:52.113Z,98.41
2018-07-07T05:22:52.103Z,99.65
2018-07-07T05:23:51.839Z,99.99
2018-07-07T05:24:52.087Z,99.99
2018-07-07T05:25:52.077Z,99.99
2018-07-07T05:26:52.097Z,99.99
2018-07-07T05:27:52.067Z,99.99
2018-07-07T05:28:52.054Z,99.99
2018-07-07T05:29:52.048Z,99.99
2018-07-07T05:30:52.035Z,99.99
2018-07-07T05:31:52.246Z,99.99
2018-07-07T05:32:51.762Z,99.99
2018-07-07T05:33:51.753Z,99.99
2018-07-07T05:34:52.000Z,99.99
2018-07-07T05:35:52.080Z,99.99
2018-07-07T05:36:51.989Z,99.99
2018-07-07T05:37:51.724Z,99.99
2018-07-07T05:38:51.712Z,99.99
2018-07-07T05:39:51.703Z,99.99
2018-07-07T05:40:51.961Z,99.99
2018-07-07T05:41:51.944Z,99.99
2018-07-07T05:42:51.936Z,99.99
2018-07-07T05:43:51.928Z,99.99
2018-07-07T05:44:51.922Z,99.99
2018-07-07T05:45:51.921Z,99.99
2018-07-07T05:46:51.905Z,99.99
2018-07-07T05:47:51.644Z,99.99
2018-07-07T05:48:51.889Z,99.99
2018-07-07T05:49:51.880Z,99.99
2018-07-07T05:50:51.875Z,99.99
2018-07-07T05:51:51.867Z,99.99
2018-07-07T05:52:51.861Z,99.99
2018-07-07T05:53:51.850Z,99.99
2018-07-07T05:54:51.842Z,99.99
2018-07-07T05:55:51.837Z,99.99
2018-07-07T05:56:51.827Z,99.99
2018-07-07T05:57:51.826Z,99.99
2018-07-07T05:58:51.557Z,99.99
2018-07-07T05:59:51.549Z,99.99
2018-07-07T06:00:51.799Z,99.99
2018-07-07T06:01:51.535Z,99.99
2018-07-07T06:02:51.530Z,99.99
2018-07-07T06:03:51.519Z,99.99
2018-07-07T06:04:51.769Z,99.99
2018-07-07T06:05:51.761Z,99.99
2018-07-07T06:06:51.757Z,99.99
2018-07-07T06:07:51.746Z,99.99
2018-07-07T06:08:51.739Z,99.99
2018-07-07T06:09:51.732Z,99.66
2018-07-07T06:10:51.469Z,99.99
2018-07-07T06:11:51.464Z,99.99
2018-07-07T06:12:51.713Z,99.99
2018-07-07T06:13:51.705Z,99.99
2018-07-07T06:14:51.441Z,99.99
2018-07-07T06:15:51.690Z,99.99
2018-07-07T06:16:51.685Z,99.99
2018-07-07T06:17:51.679Z,99.99
2018-07-07T06:18:51.670Z,99.99
2018-07-07T06:19:51.667Z,99.99
2018-07-07T06:20:51.403Z,99.99
2018-07-07T06:21:51.661Z,98.47
2018-07-07T06:22:51.648Z,99.99
2018-07-07T06:23:51.643Z,99.99
2018-07-07T06:24:51.637Z,98.32
2018-07-07T06:25:51.629Z,98.75
2018-07-07T06:26:51.859Z,98.94
2018-07-07T06:27:51.619Z,99.99
2018-07-07T06:28:51.615Z,99.99
2018-07-07T06:29:51.605Z,99.99
2018-07-07T06:30:51.600Z,94.93
2018-07-07T06:31:51.594Z,97.23
2018-07-07T06:32:51.332Z,97.89
2018-07-07T06:33:51.585Z,97.03
2018-07-07T06:34:51.579Z,98.75
2018-07-07T06:35:51.570Z,99.33
2018-07-07T06:36:51.571Z,94.07
2018-07-07T06:37:51.559Z,91.02
2018-07-07T06:38:51.555Z,90.59
2018-07-07T06:39:51.550Z,95.17
2018-07-07T06:40:51.544Z,86.76
2018-07-07T06:41:51.534Z,88.87
2018-07-07T06:42:51.531Z,90.97
2018-07-07T06:43:51.650Z,93.74
2018-07-07T06:44:51.518Z,98.8
2018-07-07T06:45:51.516Z,96.99
2018-07-07T06:46:51.505Z,98.75
2018-07-07T06:47:51.498Z,89.24
2018-07-07T06:48:51.549Z,73.72
2018-07-07T06:49:51.488Z,67.18
2018-07-07T06:50:51.487Z,60.66
2018-07-07T06:51:51.479Z,56.11
2018-07-07T06:52:51.217Z,50.01
2018-07-07T06:53:51.744Z,46.88
2018-07-07T06:54:51.466Z,44.11
2018-07-07T06:55:51.465Z,43.07
2018-07-07T06:56:51.459Z,42.8
2018-07-07T06:57:51.460Z,40.8
2018-07-07T06:58:51.456Z,39.94
2018-07-07T06:59:51.243Z,39.18
2018-07-07T07:00:51.193Z,38.7
2018-07-07T07:01:51.448Z,36.98
2018-07-07T07:02:51.449Z,35.95
2018-07-07T07:03:51.453Z,35.1
2018-07-07T07:04:51.454Z,35.12
2018-07-07T07:05:51.453Z,33.39
2018-07-07T07:06:51.443Z,33.7
2018-07-07T07:07:51.442Z,31.5
2018-07-07T07:08:51.442Z,29.77
2018-07-07T07:09:51.441Z,28.91
2018-07-07T07:10:51.442Z,29.88
2018-07-07T07:11:51.508Z,28.93
2018-07-07T07:12:51.446Z,27.1
2018-07-07T07:13:51.451Z,25.07
2018-07-07T07:14:51.450Z,26.43
2018-07-07T07:15:51.453Z,26.33
2018-07-07T07:16:51.451Z,25.37
2018-07-07T07:17:51.199Z,24.41
2018-07-07T07:18:51.456Z,24.99
2018-07-07T07:19:51.482Z,24.8
2018-07-07T07:20:51.204Z,24.23
2018-07-07T07:21:51.466Z,23.45
2018-07-07T07:22:51.468Z,25.1
2018-07-07T07:23:51.470Z,27.06
2018-07-07T07:24:51.477Z,24.34
2018-07-07T07:25:51.486Z,24.15
2018-07-07T07:26:51.481Z,23.38
2018-07-07T07:27:51.488Z,23.18
2018-07-07T07:28:51.487Z,22.41
2018-07-07T07:29:51.236Z,23.27
2018-07-07T07:30:51.504Z,23.25
2018-07-07T07:31:51.502Z,26.76
2018-07-07T07:32:51.555Z,25.01
2018-07-07T07:33:51.509Z,24.62
2018-07-07T07:34:51.518Z,24.23
2018-07-07T07:35:51.548Z,24.72
2018-07-07T07:36:51.625Z,23.84
2018-07-07T07:37:51.528Z,23.94
2018-07-07T07:38:51.576Z,25.48
2018-07-07T07:39:51.579Z,25.85
2018-07-07T07:40:51.542Z,26.79
2018-07-07T07:41:51.545Z,27.26
2018-07-07T07:42:51.291Z,27.15
2018-07-07T07:43:51.556Z,27.82
2018-07-07T07:44:51.560Z,28.29
2018-07-07T07:45:51.561Z,30
2018-07-07T07:46:51.563Z,31.62
2018-07-07T07:47:51.310Z,34
2018-07-07T07:48:51.570Z,36.29
2018-07-07T07:49:51.570Z,37.21
2018-07-07T07:50:51.320Z,39.49
2018-07-07T07:51:51.581Z,41.97
2018-07-07T07:52:51.788Z,43.49
2018-07-07T07:53:51.581Z,45.01
2018-07-07T07:54:51.583Z,45.39
2018-07-07T07:55:51.582Z,45.59
2018-07-07T07:56:51.582Z,46.93
2018-07-07T07:57:51.585Z,46.36
2018-07-07T07:58:51.612Z,46.93
2018-07-07T07:59:51.585Z,46.28
2018-07-07T08:00:51.593Z,45.73
2018-07-07T08:01:51.587Z,44.4
2018-07-07T08:02:51.588Z,40.51
2018-07-07T08:03:51.333Z,38.23
2018-07-07T08:04:51.719Z,35.76
2018-07-07T08:05:51.589Z,34.84
2018-07-07T08:06:51.330Z,31.57
2018-07-07T08:07:51.590Z,30.23
2018-07-07T08:08:51.598Z,30.63
2018-07-07T08:09:51.332Z,29.47
2018-07-07T08:10:51.333Z,27.35
2018-07-07T08:11:51.590Z,28.13
2018-07-07T08:12:51.591Z,28.9
2018-07-07T08:13:51.596Z,28.33
2018-07-07T08:14:51.600Z,27.18
2018-07-07T08:15:51.336Z,26.89
2018-07-07T08:16:51.597Z,29.01
2018-07-07T08:17:51.598Z,27.57
2018-07-07T08:18:51.593Z,26.5
2018-07-07T08:19:51.596Z,26.97
2018-07-07T08:20:51.598Z,27.73
2018-07-07T08:21:51.601Z,29.57
2018-07-07T08:22:51.660Z,30.91
2018-07-07T08:23:51.342Z,30.69
2018-07-07T08:24:51.600Z,29.61
2018-07-07T08:25:51.599Z,30.18
2018-07-07T08:26:51.600Z,31.33
2018-07-07T08:27:51.600Z,33.34
2018-07-07T08:28:51.601Z,31.3
2018-07-07T08:29:51.599Z,31.76
2018-07-07T08:30:51.599Z,31.37
2018-07-07T08:31:51.602Z,33.95
2018-07-07T08:32:51.600Z,35.1
2018-07-07T08:33:51.598Z,35.17
2018-07-07T08:34:51.604Z,35.27
2018-07-07T08:35:51.600Z,33.81
2018-07-07T08:36:51.604Z,36.99
2018-07-07T08:37:51.602Z,38.51
2018-07-07T08:38:51.600Z,39.95
2018-07-07T08:39:51.598Z,40.43
2018-07-07T08:40:51.595Z,38.02
2018-07-07T08:41:51.815Z,35.24
2018-07-07T08:42:51.594Z,33.69
2018-07-07T08:43:51.593Z,35.22
2018-07-07T08:44:51.593Z,38.29
2018-07-07T08:45:51.593Z,37.04
2018-07-07T08:46:51.594Z,36.95
2018-07-07T08:47:51.590Z,36.85
2018-07-07T08:48:51.593Z,35.6
2018-07-07T08:49:51.589Z,35.12
2018-07-07T08:50:51.588Z,36.47
2018-07-07T08:51:51.587Z,36.76
2018-07-07T08:52:51.328Z,36.66
2018-07-07T08:53:51.583Z,33.67
2018-07-07T08:54:51.584Z,37.04
2018-07-07T08:55:51.584Z,36.85
2018-07-07T08:56:51.581Z,31.75
2018-07-07T08:57:51.322Z,32.04
2018-07-07T08:58:51.578Z,31.95
2018-07-07T08:59:51.580Z,32.71
2018-07-07T09:00:51.575Z,35.12
2018-07-07T09:01:51.574Z,37.52
2018-07-07T09:02:51.573Z,36.76
2018-07-07T09:03:51.571Z,34.83
2018-07-07T09:04:51.569Z,31.08
2018-07-07T09:05:51.572Z,32.23
2018-07-07T09:06:51.577Z,32.71
2018-07-07T09:07:51.721Z,31.75
2018-07-07T09:08:51.570Z,30.6
2018-07-07T09:09:51.566Z,30.02
2018-07-07T09:10:51.563Z,30.69
2018-07-07T09:11:51.303Z,30.31
2018-07-07T09:12:51.561Z,30.98
2018-07-07T09:13:51.560Z,29.93
2018-07-07T09:14:51.557Z,32.23
2018-07-07T09:15:51.555Z,31.87
2018-07-07T09:16:51.558Z,30.98
2018-07-07T09:17:51.551Z,30.61
2018-07-07T09:18:51.401Z,30.32
2018-07-07T09:19:51.552Z,28.88
2018-07-07T09:20:51.547Z,31.09
2018-07-07T09:21:51.547Z,31.57
2018-07-07T09:22:51.544Z,29.46
2018-07-07T09:23:51.287Z,28.69
2018-07-07T09:24:51.284Z,30.04
2018-07-07T09:25:51.540Z,30.8
2018-07-07T09:26:51.539Z,28.7
2018-07-07T09:27:51.542Z,30.8
2018-07-07T09:28:51.535Z,29.55
2018-07-07T09:29:51.533Z,28.8
2018-07-07T09:30:51.608Z,26.28
2018-07-07T09:31:51.535Z,23.88
2018-07-07T09:32:51.530Z,21.95
2018-07-07T09:33:51.527Z,21.27
2018-07-07T09:34:51.528Z,21.85
2018-07-07T09:35:51.269Z,23.39
2018-07-07T09:36:51.268Z,24.93
2018-07-07T09:37:51.267Z,24.35
2018-07-07T09:38:51.328Z,24.84
2018-07-07T09:39:51.262Z,24.27
2018-07-07T09:40:51.263Z,24.35
2018-07-07T09:41:51.261Z,23.79
2018-07-07T09:42:51.520Z,22.63
2018-07-07T09:43:51.519Z,21.96
2018-07-07T09:44:51.516Z,21.09
2018-07-07T09:45:51.513Z,24.18
2018-07-07T09:46:51.513Z,24.95
2018-07-07T09:47:51.510Z,25.71
2018-07-07T09:48:51.509Z,23.79
2018-07-07T09:49:51.509Z,24.95
2018-07-07T09:50:51.509Z,27.45
2018-07-07T09:51:51.509Z,25.52
2018-07-07T09:52:51.503Z,25.62
2018-07-07T09:53:51.246Z,23.79
2018-07-07T09:54:51.505Z,24.27
2018-07-07T09:55:51.501Z,24.19
2018-07-07T09:56:51.500Z,23.61
2018-07-07T09:57:51.505Z,22.45
2018-07-07T09:58:51.238Z,23.8
2018-07-07T09:59:51.493Z,22.73
2018-07-07T10:00:51.237Z,21.86
2018-07-07T10:01:51.670Z,22.05
2018-07-07T10:02:51.492Z,22.25
2018-07-07T10:03:51.231Z,21.38
2018-07-07T10:04:51.489Z,21.56
2018-07-07T10:05:51.486Z,22.83
2018-07-07T10:06:51.487Z,21.95
2018-07-07T10:07:51.499Z,22.72
2018-07-07T10:08:51.482Z,23.58
2018-07-07T10:09:51.480Z,23.2
2018-07-07T10:10:51.489Z,26.09
2018-07-07T10:11:51.486Z,28.11
2018-07-07T10:12:51.480Z,26.97
2018-07-07T10:13:51.480Z,27.45
2018-07-07T10:14:51.471Z,26.29
2018-07-07T10:15:51.469Z,24.85
2018-07-07T10:16:51.212Z,24.85
2018-07-07T10:17:51.471Z,27.45
2018-07-07T10:18:51.467Z,26.68
2018-07-07T10:19:51.211Z,25.43
2018-07-07T10:20:51.596Z,25.52
2018-07-07T10:21:51.208Z,24.95
2018-07-07T10:22:51.461Z,23.88
2018-07-07T10:23:51.465Z,24.85
2018-07-07T10:24:51.467Z,26.29
2018-07-07T10:25:51.457Z,25.33
2018-07-07T10:26:51.457Z,25.91
2018-07-07T10:27:51.460Z,28.7
2018-07-07T10:28:51.451Z,27.37
2018-07-07T10:29:51.454Z,26.59
2018-07-07T10:30:51.453Z,26.59
2018-07-07T10:31:51.449Z,26.69
2018-07-07T10:32:51.190Z,27.76
2018-07-07T10:33:51.190Z,23.9
2018-07-07T10:34:51.444Z,24.96
2018-07-07T10:35:51.442Z,25.07
2018-07-07T10:36:51.185Z,26.79
2018-07-07T10:37:51.446Z,26.59
2018-07-07T10:38:51.183Z,28.14
2018-07-07T10:39:51.183Z,25.35
2018-07-07T10:40:51.181Z,24.49
2018-07-07T10:41:51.180Z,24.96
2018-07-07T10:42:51.438Z,24.67
2018-07-07T10:43:51.433Z,24.48
2018-07-07T10:44:51.434Z,24.48
2018-07-07T10:45:51.335Z,22.36
2018-07-07T10:46:51.430Z,23.13
2018-07-07T10:47:51.429Z,23.99
2018-07-07T10:48:51.192Z,23.03
2018-07-07T10:49:51.437Z,22.06
2018-07-07T10:50:51.426Z,22.17
2018-07-07T10:51:51.168Z,24.19
2018-07-07T10:52:51.423Z,24.38
2018-07-07T10:53:51.424Z,24.67
2018-07-07T10:54:51.426Z,25.64
2018-07-07T10:55:51.432Z,25.55
2018-07-07T10:56:51.167Z,25.45
2018-07-07T10:57:51.422Z,25.07
2018-07-07T10:58:51.521Z,24.29
2018-07-07T10:59:51.416Z,24.77
2018-07-07T11:00:51.417Z,24.97
2018-07-07T11:01:51.159Z,24.39
2018-07-07T11:02:51.422Z,24.88
2018-07-07T11:03:51.413Z,22.76
2018-07-07T11:04:51.414Z,21.51
2018-07-07T11:05:51.416Z,24.01
2018-07-07T11:06:51.414Z,23.81
2018-07-07T11:07:51.409Z,24.49
2018-07-07T11:08:51.409Z,22.56
2018-07-07T11:09:51.410Z,22.47
2018-07-07T11:10:51.409Z,22.09
2018-07-07T11:11:51.699Z,21.21
2018-07-07T11:12:51.407Z,22.08
2018-07-07T11:13:51.410Z,21.98
2018-07-07T11:14:51.406Z,24.39
2018-07-07T11:15:51.151Z,25.16
2018-07-07T11:16:51.404Z,25.45
2018-07-07T11:17:51.403Z,24.21
2018-07-07T11:18:51.403Z,22.76
2018-07-07T11:19:51.454Z,22.86
2018-07-07T11:20:51.147Z,22.96
2018-07-07T11:21:51.400Z,23.15
2018-07-07T11:22:51.406Z,26.43
2018-07-07T11:23:51.400Z,26.72
2018-07-07T11:24:51.445Z,23.34
2018-07-07T11:25:51.402Z,24.6
2018-07-07T11:26:51.398Z,22.76
2018-07-07T11:27:51.396Z,24.4
2018-07-07T11:28:51.396Z,25.08
2018-07-07T11:29:51.549Z,23.82
2018-07-07T11:30:51.400Z,21.22
2018-07-07T11:31:51.401Z,24.6
2018-07-07T11:32:51.395Z,23.92
2018-07-07T11:33:51.392Z,22.96
2018-07-07T11:34:51.393Z,23.92
2018-07-07T11:35:51.392Z,24.88
2018-07-07T11:36:51.565Z,21.7
2018-07-07T11:37:51.392Z,21.99
2018-07-07T11:38:51.390Z,21.98
2018-07-07T11:39:51.390Z,21.11
2018-07-07T11:40:51.134Z,21.69
2018-07-07T11:41:51.133Z,23.33
2018-07-07T11:42:51.390Z,23.62
2018-07-07T11:43:51.387Z,20.83
2018-07-07T11:44:51.133Z,21.31
2018-07-07T11:45:51.388Z,23.04
2018-07-07T11:46:51.388Z,22.36
2018-07-07T11:47:51.391Z,22.17
2018-07-07T11:48:51.389Z,23.24
2018-07-07T11:49:51.129Z,20.64
2018-07-07T11:50:51.383Z,21.51
2018-07-07T11:51:51.383Z,20.35
2018-07-07T11:52:51.384Z,17.55
2018-07-07T11:53:51.384Z,18.41
2018-07-07T11:54:51.381Z,17.93
2018-07-07T11:55:51.124Z,18.12
2018-07-07T11:56:51.381Z,19.76
2018-07-07T11:57:51.389Z,21.21
2018-07-07T11:58:51.123Z,21.5
2018-07-07T11:59:51.386Z,21.4
2018-07-07T12:00:51.123Z,22.27
2018-07-07T12:01:51.418Z,22.38
2018-07-07T12:02:51.122Z,19.38
2018-07-07T12:03:51.377Z,17.46
2018-07-07T12:04:51.582Z,17.84
2018-07-07T12:05:51.118Z,16.78
2018-07-07T12:06:51.377Z,17.55
2018-07-07T12:08:16.173Z,14.95
2018-07-07T12:08:51.374Z,16.29
2018-07-07T12:09:51.117Z,16
2018-07-07T12:10:51.374Z,15.23
2018-07-07T12:11:51.383Z,17.16
2018-07-07T12:12:51.374Z,18.03
2018-07-07T12:13:51.373Z,20.05
2018-07-07T12:14:51.378Z,18.62
2018-07-07T12:15:51.115Z,17.46
2018-07-07T12:16:51.373Z,15.81
2018-07-07T12:17:51.371Z,16.2
2018-07-07T12:18:51.377Z,16.97
2018-07-07T12:19:51.371Z,15.14
2018-07-07T12:20:51.113Z,16.97
2018-07-07T12:21:51.373Z,17.27
2018-07-07T12:22:51.370Z,19.1
2018-07-07T12:23:51.368Z,18.62
2018-07-07T12:24:51.484Z,20.35
2018-07-07T12:25:51.112Z,19.2
2018-07-07T12:26:51.372Z,17.66
2018-07-07T12:27:51.369Z,17.56
2018-07-07T12:28:51.367Z,18.62
2018-07-07T12:29:51.369Z,18.33
2018-07-07T12:30:51.371Z,19.1
2018-07-07T12:31:51.370Z,18.62
2018-07-07T12:32:51.110Z,20.46
2018-07-07T12:33:51.366Z,20.56
2018-07-07T12:34:51.365Z,20.36
2018-07-07T12:35:51.109Z,16.89
2018-07-07T12:36:51.109Z,16.31
2018-07-07T12:37:51.108Z,16.21
2018-07-07T12:38:51.108Z,17.27
2018-07-07T12:39:51.364Z,17.27
2018-07-07T12:40:51.548Z,16.39
2018-07-07T12:41:51.366Z,17.84
2018-07-07T12:42:51.362Z,19.29
2018-07-07T12:43:51.107Z,19.2
2018-07-07T12:44:51.519Z,17.65
2018-07-07T12:45:51.468Z,17.75
2018-07-07T12:46:51.107Z,20.45
2018-07-07T12:47:51.362Z,19.87
2018-07-07T12:48:51.107Z,19.87
2018-07-07T12:49:51.106Z,20.74
2018-07-07T12:50:51.364Z,21.31
2018-07-07T12:51:51.121Z,21.51
2018-07-07T12:52:51.364Z,20.46
2018-07-07T12:53:51.363Z,18.82
2018-07-07T12:54:51.107Z,18.91
2018-07-07T12:55:51.368Z,19.1